Main page
METAR-TAF:

METAR-TAF

Airports :

Dallas/Fort Worth International Airport

Dallas / Fort Worth, Texas, United States

latitude: 32-53-49N, longitude: 097-01-19W, elevation: 183 m

Current weather observation

The report was made 25 minutes ago, at 18:53 UTC
Wind 16 kt from the South with gusts up to 24 kt
Temperature 34°C
Humidity 47%
Pressure 1014 hPa
Visibility: 16.1 km
Scattered clouds at a height of 4500 ft
Scattered clouds at a height of 30000 ft

METAR: KDFW 241853Z 18016G24KT 10SM SCT045 SCT300 34/21 A2994 RMK AO2 SLP129 T03390211

Time: 14:18 (19:18 UTC)

Forecast

The report was made 1 hour and 50 minutes ago, at 17:28 UTC
Forecast valid from 24 at 18 UTC to 25 at 24 UTC
Wind 13 kt from the South with gusts up to 23 kt
Visibility: 10 km
Scattered clouds at a height of 6000 ft
Scattered clouds at a height of 25000 ft
From 25 at 0000 UTC
Wind 12 kt from the South
Visibility: 10 km
Few clouds at a height of 25000 ft

TAF: KDFW 241728Z 2418/2524 18013G23KT P6SM SCT060 SCT250 FM250000 18012KT P6SM FEW250

Weather observations and forecasts of more than 4000 airports (METAR and TAF reports).

The available stations are represented by yellow and red dots on the map.

Hover mouse over dot to see the name of the station.

Then click to see weather observations and forecasts.

To change the map : click on the green buttons with a black cross to zoom in, on the green button with a dash to zoom out, or on the green arrows for adjacent maps.


METAR-TAF: